Latest Coastal Weather Observations for Hogan Island

IDT60701

Issued at 11:52 pm EDT Thursday 22 February 2018 (issued every 10 minutes, with the page automatically refreshed every 10 minutes)

About coastal observations | Map of coastal stations | Coastal observations for TAS | Marine services | Other Formats
Station Details ID: 200838 Name: HOGAN ISLAND Lat: -39.22 Lon: 146.98 Height: 116.0 m
Data from the previous 72 hours. | See also: Recent months at Hogan Island
Date/Time
EDT
Temp
°C
Wind Pressure Rain since
9am
mm
Weather Cloud Vis
km
Sea
Height
m
Swell
Dir  Spd
kts
Gust
kts
hPa Trend Height
m
Period
s
Dir
22/11:30pm 18.2 E 20 24 1014.1 - 0.0 - - - - - - -
22/11:00pm 18.2 E 20 25 1014.4 - 0.0 - - - - - - -
22/10:30pm 18.2 E 21 26 1014.5 - 0.0 - - - - - - -
22/10:00pm 18.3 E 22 25 1014.5 - 0.0 - - - - - - -
22/09:30pm 18.3 E 21 24 1014.5 - 0.0 - - - - - - -
22/09:00pm 18.3 E 20 23 1014.0 - 0.0 - - - - - - -
22/08:30pm 18.3 E 18 22 1014.2 - 0.0 - - - - - - -
22/08:00pm 18.3 E 18 20 1013.8 - 0.0 - - - - - - -
22/07:30pm 18.6 E 16 18 1013.7 - 0.0 - - - - - - -
22/07:00pm 19.4 E 13 16 1013.7 - 0.0 - - - - - - -
22/06:30pm 19.4 E 13 15 1013.8 - 0.0 - - - - - - -
22/06:00pm 20.0 E 13 16 1013.5 - 0.0 - - - - - - -
22/05:30pm 20.6 E 14 17 1013.9 - 0.0 - - - - - - -
22/05:00pm 20.6 E 15 18 1013.9 - 0.0 - - - - - - -
22/04:30pm 21.1 E 16 19 1013.8 - 0.0 - - - - - - -
22/04:00pm 21.5 E 18 21 1013.9 - 0.0 - - - - - - -
22/03:30pm 21.3 E 19 21 1014.2 - 0.0 - - - - - - -
22/03:00pm 21.8 E 19 21 1014.3 - 0.0 - - - - - - -
22/02:30pm 22.5 E 19 22 1014.7 - 0.0 - - - - - - -
22/02:00pm 22.0 E 19 21 1015.0 - 0.0 - - - - - - -
22/01:30pm 21.8 ESE 19 22 1015.1 - 0.0 - - - - - - -
22/01:00pm 21.2 ESE 20 23 1015.3 - 0.0 - - - - - - -
22/12:30pm 21.0 E 21 23 1015.6 - 0.0 - - - - - - -
22/12:00pm 21.7 ESE 21 24 1015.6 - 0.0 - - - - - - -
22/11:30am 22.4 ESE 20 23 1015.9 - 0.0 - - - - - - -
22/11:00am 21.2 ESE 19 22 1016.1 - 0.0 - - - - - - -
22/10:30am 20.8 E 19 21 1016.1 - 0.0 - - - - - - -
22/10:00am 19.5 E 16 19 1016.2 - 0.0 - - - - - - -
22/09:30am 19.6 E 16 18 1016.4 - 0.0 - - - - - - -
22/09:00am 18.8 E 15 17 1016.1 - 0.0 - - - - - - -
22/08:30am 18.1 E 15 18 1016.4 - 0.0 - - - - - - -
22/08:00am 17.7 E 15 17 1016.1 - 0.0 - - - - - - -
22/07:30am 17.5 E 18 19 1015.6 - 0.0 - - - - - - -
22/07:00am 17.2 E 18 20 1015.4 - 0.0 - - - - - - -
22/06:30am 17.1 E 18 20 1015.2 - 0.0 - - - - - - -
22/06:00am 17.1 E 19 23 1014.7 - 0.0 - - - - - - -
22/05:30am 17.2 E 19 21 1015.0 - 0.0 - - - - - - -
22/05:00am 17.2 E 19 22 1015.0 - 0.0 - - - - - - -
22/04:30am 17.2 E 20 22 1014.9 - 0.0 - - - - - - -
22/04:00am 17.1 E 18 21 1015.1 - 0.0 - - - - - - -
22/03:30am 17.1 E 16 19 1015.4 - 0.0 - - - - - - -
22/03:00am 17.1 E 17 19 1015.0 - 0.0 - - - - - - -
22/02:30am 17.2 E 17 19 1015.5 - 0.0 - - - - - - -
22/02:00am 17.1 E 16 18 1015.9 - 0.0 - - - - - - -
22/01:30am 17.0 E 15 18 1016.1 - 0.0 - - - - - - -
22/01:00am 17.1 E 14 16 1016.3 - 0.0 - - - - - - -
22/12:30am 17.3 E 15 17 1016.4 - 0.0 - - - - - - -
22/12:00am 17.3 E 17 21 1016.1 - 0.0 - - - - - - -
 
Date/Time
EDT
Temp
°C
Wind Pressure Rain since
9am
mm
Weather Cloud Vis
km
Sea
Height
m
Swell
Dir  Spd
kts
Gust
kts
hPa Trend Height
m
Period
s
Dir
21/11:30pm 17.2 E 19 22 1016.3 - 0.0 - - - - - - -
21/11:00pm 17.2 E 20 22 1016.3 - 0.0 - - - - - - -
21/10:30pm 17.1 E 18 20 1016.7 - 0.0 - - - - - - -
21/10:00pm 17.2 E 18 21 1016.8 - 0.0 - - - - - - -
21/09:30pm 17.2 E 18 21 1016.6 - 0.0 - - - - - - -
21/09:00pm 17.2 E 17 19 1016.0 - 0.0 - - - - - - -
21/08:30pm 17.2 E 17 19 1016.2 - 0.0 - - - - - - -
21/08:00pm 17.4 E 17 21 1015.8 - 0.0 - - - - - - -
21/07:30pm 17.7 E 17 19 1016.0 - 0.0 - - - - - - -
21/07:00pm 18.2 E 17 20 1015.9 - 0.0 - - - - - - -
21/06:30pm 18.8 ENE 17 20 1015.8 - 0.0 - - - - - - -
21/06:00pm 19.7 ENE 19 22 1015.3 - 0.0 - - - - - - -
21/05:30pm 20.1 ENE 18 22 1015.6 - 0.0 - - - - - - -
21/05:00pm 19.4 ENE 19 21 1015.7 - 0.0 - - - - - - -
21/04:30pm 19.6 ENE 17 20 1016.1 - 0.0 - - - - - - -
21/04:00pm 19.4 ENE 20 23 1015.8 - 0.0 - - - - - - -
21/03:30pm 20.2 ENE 22 25 1016.1 - 0.0 - - - - - - -
21/03:00pm 20.2 ENE 23 25 1015.8 - 0.0 - - - - - - -
21/02:30pm 19.8 ENE 23 26 1016.5 - 0.0 - - - - - - -
21/02:00pm 21.1 ENE 23 25 1016.8 - 0.0 - - - - - - -
21/01:30pm 20.9 ENE 23 25 1017.0 - 0.0 - - - - - - -
21/01:00pm 21.5 ENE 22 25 1017.3 - 0.0 - - - - - - -
21/12:30pm 20.4 ENE 23 25 1017.7 - 0.0 - - - - - - -
21/12:00pm 18.6 ENE 23 27 1017.5 - 0.0 - - - - - - -
21/11:30am 18.2 ENE 22 25 1018.1 - 0.0 - - - - - - -
21/11:00am 18.2 ENE 22 26 1018.4 - 0.0 - - - - - - -
21/10:30am 18.6 ENE 21 25 1018.3 - 0.0 - - - - - - -
21/10:00am 19.0 ENE 21 24 1018.3 - 0.0 - - - - - - -
21/09:30am 18.0 ENE 22 24 1018.2 - 0.0 - - - - - - -
21/09:00am 17.5 ENE 22 26 1018.0 - 0.0 - - - - - - -
21/08:30am 18.4 ENE 23 27 1017.8 - 0.0 - - - - - - -
21/08:00am 16.6 ENE 23 27 1017.8 - 0.0 - - - - - - -
21/07:30am 16.7 ENE 24 27 1017.5 - 0.0 - - - - - - -
21/07:00am 16.5 ENE 25 29 1017.5 - 0.0 - - - - - - -
21/06:30am 16.3 ENE 24 27 1017.3 - 0.0 - - - - - - -
21/06:00am 15.9 ENE 24 29 1016.8 - 0.0 - - - - - - -
21/05:30am 15.6 ENE 24 28 1017.3 - 0.0 - - - - - - -
21/05:00am 15.5 ENE 24 27 1017.5 - 0.0 - - - - - - -
21/04:30am 15.5 ENE 27 31 1017.1 - 0.0 - - - - - - -
21/04:00am 15.5 ENE 29 33 1017.0 - 0.0 - - - - - - -
21/03:30am 15.5 ENE 27 31 1017.4 - 0.0 - - - - - - -
21/03:00am 15.5 ENE 26 30 1017.7 - 0.0 - - - - - - -
21/02:30am 15.7 ENE 27 32 1018.1 - 0.0 - - - - - - -
21/02:00am 15.8 ENE 26 31 1018.5 - 0.0 - - - - - - -
21/01:30am 15.8 ENE 26 30 1018.7 - 0.0 - - - - - - -
21/01:00am 15.6 ENE 26 30 1018.9 - 0.0 - - - - - - -
21/12:30am 15.4 ENE 28 33 1019.1 - 0.0 - - - - - - -
21/12:00am 15.3 ENE 29 34 1019.3 - 0.0 - - - - - - -
 
Date/Time
EDT
Temp
°C
Wind Pressure Rain since
9am
mm
Weather Cloud Vis
km
Sea
Height
m
Swell
Dir  Spd
kts
Gust
kts
hPa Trend Height
m
Period
s
Dir
20/11:30pm 15.2 E 27 33 1019.9 - 0.0 - - - - - - -
20/11:00pm 15.2 E 27 33 1020.2 - 0.0 - - - - - - -
20/10:30pm 15.0 E 27 32 1020.3 - 0.0 - - - - - - -
20/10:00pm 15.1 E 26 30 1020.6 - 0.0 - - - - - - -
20/09:30pm 15.0 E 26 31 1020.7 - 0.0 - - - - - - -
20/09:00pm 15.0 E 27 32 1020.2 - 0.0 - - - - - - -
20/08:30pm 15.2 E 24 29 1020.4 - 0.0 - - - - - - -
20/08:00pm 15.4 E 26 31 1020.3 - 0.0 - - - - - - -
20/07:30pm 15.7 E 26 30 1019.9 - 0.0 - - - - - - -
20/07:00pm 16.1 E 26 30 1019.7 - 0.0 - - - - - - -
20/06:30pm 16.5 E 25 31 1019.9 - 0.0 - - - - - - -
20/06:00pm 17.1 E 26 31 1019.8 - 0.0 - - - - - - -
20/05:30pm 17.5 E 24 28 1020.3 - 0.0 - - - - - - -
20/05:00pm 18.3 E 24 29 1020.6 - 0.0 - - - - - - -
20/04:30pm 19.0 E 23 29 1020.9 - 0.0 - - - - - - -
20/04:00pm 19.1 E 27 31 1021.0 - 0.0 - - - - - - -
20/03:30pm 18.7 E 27 32 1021.2 - 0.0 - - - - - - -
20/03:00pm 18.7 E 26 30 1021.4 - 0.0 - - - - - - -
20/02:30pm 17.9 E 25 31 1022.2 - 0.0 - - - - - - -
20/02:00pm 17.6 E 26 31 1022.4 - 0.0 - - - - - - -
20/01:30pm 18.2 E 22 26 1022.6 - 0.0 - - - - - - -
20/01:00pm 17.5 E 24 29 1022.8 - 0.0 - - - - - - -
20/12:30pm 18.1 E 23 27 1022.9 - 0.0 - - - - - - -
20/12:00pm 18.4 E 23 29 1022.6 - 0.0 - - - - - - -
20/11:30am 17.5 ENE 26 29 1022.7 - 0.0 - - - - - - -
20/11:00am 17.8 E 24 30 1022.7 - 0.0 - - - - - - -
20/10:30am 17.6 E 25 29 1022.8 - 0.0 - - - - - - -
20/10:00am 17.0 E 23 28 1023.1 - 0.0 - - - - - - -
20/09:30am 16.8 E 26 31 1022.9 - 0.0 - - - - - - -
20/09:00am 16.7 E 24 30 1022.8 - 0.0 - - - - - - -
20/08:30am 16.4 E 23 27 1023.0 - 0.0 - - - - - - -
20/08:00am 16.2 E 25 30 1022.9 - 0.0 - - - - - - -
20/07:30am 16.0 E 23 27 1022.9 - 0.0 - - - - - - -
20/07:00am 15.9 E 22 27 1022.8 - 0.0 - - - - - - -
20/06:30am 15.8 E 23 26 1022.8 - 0.0 - - - - - - -
20/06:00am 15.9 E 21 27 1022.2 - 0.0 - - - - - - -
20/05:30am 15.9 E 21 24 1022.5 - 0.0 - - - - - - -
20/05:00am 15.9 E 22 25 1022.2 - 0.0 - - - - - - -
20/04:30am 15.9 E 22 26 1022.2 - 0.0 - - - - - - -
20/04:00am 15.9 E 24 27 1022.1 - 0.0 - - - - - - -
20/03:30am 15.8 E 24 29 1022.0 - 0.0 - - - - - - -
20/03:00am 15.6 E 27 33 1021.6 - 0.0 - - - - - - -
20/02:30am 15.7 E 28 33 1022.1 - 0.0 - - - - - - -
20/02:00am 15.8 E 26 29 1022.4 - 0.0 - - - - - - -
20/01:30am 15.7 E 25 30 1022.3 - 0.0 - - - - - - -
20/01:00am 15.6 E 28 33 1022.3 - 0.0 - - - - - - -
20/12:30am 15.3 E 30 37 1022.1 - 0.0 - - - - - - -
20/12:00am 15.5 E 31 38 1021.9 - 0.0 - - - - - - -

Other Formats:

Comma delimited format used in spreadsheet applications
http://www.bom.gov.au/fwo/IDT60701/IDT60701.94949.axf

JavaScript Object Notation format (JSON) in row-major order
http://www.bom.gov.au/fwo/IDT60701/IDT60701.94949.json